Time;durP1;ratioP1;P1;durP2;ratioP2;P2;SDS_P1;SDS_P2;PMS_P1;PMS_P2;Temp;Humidity;BMP_temperature;BMP_pressure;BME280_temperature;BME280_humidity;BME280_pressure;Samples;Min_cycle;Max_cycle;Signal;HPM_P1;HPM_P2
2021/01/05 00:00:57;;;;;;;21.97;15.87;;;3.00;99.90;;;;;;4962405;28;20438;-88
2021/01/05 00:03:24;;;;;;;20.43;15.67;;;3.00;99.90;;;;;;4960315;28;20475;-89
2021/01/05 00:05:50;;;;;;;22.13;16.27;;;3.00;99.90;;;;;;4961063;28;20510;-89
2021/01/05 00:08:16;;;;;;;22.58;15.65;;;3.00;99.90;;;;;;4962392;28;20491;-89
2021/01/05 00:10:44;;;;;;;22.17;16.97;;;3.00;99.90;;;;;;4960185;28;20203;-87
2021/01/05 00:13:10;;;;;;;26.63;17.10;;;2.90;99.90;;;;;;4961822;28;20498;-88
2021/01/05 00:15:36;;;;;;;27.53;18.60;;;2.90;99.90;;;;;;4961493;28;20447;-88
2021/01/05 00:18:02;;;;;;;23.53;16.27;;;2.90;99.90;;;;;;4962204;28;20447;-88
2021/01/05 00:20:32;;;;;;;24.13;17.73;;;2.90;99.90;;;;;;4958748;28;20537;-87
2021/01/05 00:22:59;;;;;;;23.60;16.90;;;2.90;99.90;;;;;;4959192;28;20603;-90
2021/01/05 00:25:27;;;;;;;25.23;17.77;;;2.90;99.90;;;;;;4962598;28;20447;-88
2021/01/05 00:27:53;;;;;;;25.33;16.23;;;2.90;99.90;;;;;;4962146;28;20569;-90
2021/01/05 00:30:22;;;;;;;29.23;17.13;;;2.90;99.90;;;;;;4962446;28;20459;-88
2021/01/05 00:32:50;;;;;;;23.47;16.50;;;3.00;99.90;;;;;;4962593;28;20471;-88
2021/01/05 00:35:19;;;;;;;23.53;16.00;;;3.00;99.90;;;;;;4962118;28;20474;-88
2021/01/05 00:37:47;;;;;;;27.93;17.90;;;3.00;99.90;;;;;;4962334;28;20476;-89
2021/01/05 00:40:14;;;;;;;25.00;17.50;;;3.00;99.90;;;;;;4960622;28;20471;-88
2021/01/05 00:42:42;;;;;;;21.20;15.10;;;3.00;99.90;;;;;;4961611;28;22516;-87
2021/01/05 00:45:09;;;;;;;23.90;17.40;;;3.00;99.90;;;;;;4961525;28;20455;-87
2021/01/05 00:47:35;;;;;;;23.23;17.43;;;3.00;99.90;;;;;;4961578;28;20483;-87
2021/01/05 00:50:02;;;;;;;23.07;17.07;;;3.00;99.90;;;;;;4961986;28;20451;-88
2021/01/05 00:52:28;;;;;;;23.30;16.73;;;3.00;99.90;;;;;;4959642;28;20541;-88
2021/01/05 00:54:55;;;;;;;23.40;17.53;;;3.00;99.90;;;;;;4962338;28;20438;-86
2021/01/05 00:57:22;;;;;;;21.30;16.60;;;3.00;99.90;;;;;;4962288;28;20491;-88
2021/01/05 00:59:48;;;;;;;22.50;16.60;;;3.00;99.90;;;;;;4960959;28;20448;-88
2021/01/05 01:02:14;;;;;;;28.57;17.73;;;3.00;99.90;;;;;;4960306;28;20771;-86
2021/01/05 01:04:41;;;;;;;21.60;16.57;;;3.00;99.90;;;;;;4961047;28;20452;-87
2021/01/05 01:07:07;;;;;;;21.90;16.00;;;3.00;99.90;;;;;;4961628;28;20490;-88
2021/01/05 01:09:33;;;;;;;22.30;16.40;;;3.00;99.90;;;;;;4961533;28;20459;-88
2021/01/05 01:12:04;;;;;;;21.70;16.97;;;3.00;99.90;;;;;;4962760;28;20478;-88
2021/01/05 01:14:30;;;;;;;25.23;18.17;;;3.00;99.90;;;;;;4964744;28;20471;-88
2021/01/05 01:16:57;;;;;;;26.27;18.07;;;3.00;99.90;;;;;;4967942;28;20454;-88
2021/01/05 01:19:23;;;;;;;26.93;16.33;;;3.00;99.90;;;;;;4965074;28;20957;-88
2021/01/05 01:21:52;;;;;;;24.60;18.10;;;3.00;99.90;;;;;;4966191;28;21018;-88
2021/01/05 01:24:18;;;;;;;21.63;15.43;;;3.00;99.90;;;;;;4962607;28;20968;-87
2021/01/05 01:26:44;;;;;;;29.40;17.03;;;3.00;99.90;;;;;;4964345;28;20476;-87
2021/01/05 01:29:14;;;;;;;23.20;16.67;;;3.00;99.90;;;;;;4964439;28;20522;-88
2021/01/05 01:31:41;;;;;;;23.47;17.87;;;3.00;99.90;;;;;;4964710;28;20468;-87
2021/01/05 01:34:07;;;;;;;25.10;16.20;;;3.00;99.90;;;;;;4965101;28;20459;-87
2021/01/05 01:36:33;;;;;;;22.70;16.67;;;3.00;99.90;;;;;;4964888;28;20658;-88
2021/01/05 01:39:00;;;;;;;25.40;18.00;;;3.00;99.90;;;;;;4963534;28;20455;-87
2021/01/05 01:41:26;;;;;;;25.47;16.80;;;3.00;99.90;;;;;;4965317;28;20826;-88
2021/01/05 01:43:53;;;;;;;21.87;16.37;;;3.00;99.90;;;;;;4964986;28;20480;-89
2021/01/05 01:46:20;;;;;;;22.97;16.13;;;3.00;99.90;;;;;;4964470;28;20454;-88
2021/01/05 01:48:46;;;;;;;27.40;18.40;;;3.10;99.90;;;;;;4963620;28;20450;-89
2021/01/05 01:51:14;;;;;;;23.00;15.90;;;3.10;99.90;;;;;;4964215;28;20511;-88
2021/01/05 01:54:05;;;;;;;25.77;18.10;;;3.10;99.90;;;;;;4963712;28;20531;-88
2021/01/05 01:57:08;;;;;;;22.80;17.10;;;3.10;99.90;;;;;;4964711;28;20451;-87
2021/01/05 01:59:52;;;;;;;25.17;18.57;;;3.10;99.90;;;;;;4962118;28;20465;-88
2021/01/05 02:02:29;;;;;;;21.90;15.97;;;3.00;99.90;;;;;;4962198;28;20475;-88
2021/01/05 02:05:07;;;;;;;23.20;16.00;;;3.00;99.90;;;;;;4963952;28;20442;-88
2021/01/05 02:08:00;;;;;;;29.17;17.80;;;3.10;99.90;;;;;;4961140;28;20543;-87
2021/01/05 02:10:36;;;;;;;23.33;16.17;;;3.10;99.90;;;;;;4964061;28;20433;-86
2021/01/05 02:13:16;;;;;;;26.60;17.83;;;3.00;99.90;;;;;;4962159;28;20478;-89
2021/01/05 02:15:54;;;;;;;29.50;17.83;;;3.10;99.90;;;;;;4963135;28;20452;-88
2021/01/05 02:18:33;;;;;;;25.43;16.70;;;3.10;99.90;;;;;;4963261;28;20451;-89
2021/01/05 02:21:03;;;;;;;26.33;17.80;;;3.10;99.90;;;;;;4964538;28;20443;-87
2021/01/05 02:23:40;;;;;;;24.27;17.90;;;3.10;99.90;;;;;;4963736;28;20541;-88
2021/01/05 02:26:12;;;;;;;25.60;17.90;;;3.10;99.90;;;;;;4961709;28;20450;-87
2021/01/05 02:28:43;;;;;;;26.90;18.70;;;3.00;99.90;;;;;;4963675;28;20552;-87
2021/01/05 02:31:22;;;;;;;27.57;17.63;;;3.10;99.90;;;;;;4964724;28;20868;-88
2021/01/05 02:33:58;;;;;;;25.07;17.27;;;3.10;99.90;;;;;;4962211;28;20980;-88
2021/01/05 02:36:53;;;;;;;26.50;17.70;;;3.10;99.90;;;;;;4963312;28;20448;-87
2021/01/05 02:39:58;;;;;;;25.33;16.73;;;3.10;99.90;;;;;;4960921;28;20447;-88
2021/01/05 02:43:01;;;;;;;30.03;19.00;;;3.10;99.90;;;;;;4941118;28;20522;-89
2021/01/05 02:45:30;;;;;;;32.43;19.77;;;3.00;99.90;;;;;;4914275;28;20439;-88
2021/01/05 02:48:23;;;;;;;27.07;18.13;;;3.10;99.90;;;;;;4964218;28;20491;-87
2021/01/05 02:51:16;;;;;;;33.57;20.57;;;3.10;99.90;;;;;;4960783;28;20449;-87
2021/01/05 02:54:20;;;;;;;29.50;19.13;;;3.00;99.90;;;;;;4962568;28;21264;-88
2021/01/05 02:57:20;;;;;;;29.77;19.73;;;3.10;99.90;;;;;;4963657;28;20860;-88
2021/01/05 03:03:36;;;;;;;26.83;18.33;;;3.10;99.90;;;;;;5149838;27;20540;-87
2021/01/05 03:06:20;;;;;;;30.77;19.17;;;3.10;99.90;;;;;;5139532;27;20431;-88
2021/01/05 03:09:10;;;;;;;37.57;19.70;;;3.10;99.90;;;;;;5138593;27;20452;-88
2021/01/05 03:11:48;;;;;;;30.50;18.50;;;3.10;99.90;;;;;;5118112;27;20440;-87
2021/01/05 03:14:21;;;;;;;30.07;19.80;;;3.10;99.90;;;;;;5139342;27;20499;-88
2021/01/05 03:16:56;;;;;;;29.43;18.67;;;3.10;99.90;;;;;;5135259;27;20456;-88
2021/01/05 03:19:36;;;;;;;31.77;18.90;;;3.10;99.90;;;;;;5138284;27;20458;-89
2021/01/05 03:22:05;;;;;;;31.50;19.70;;;3.00;99.90;;;;;;5135539;27;20524;-88
2021/01/05 03:24:33;;;;;;;30.10;19.87;;;3.00;99.90;;;;;;5139283;27;20447;-89
2021/01/05 03:27:00;;;;;;;30.57;18.47;;;3.10;99.90;;;;;;5139054;27;20499;-87
2021/01/05 03:29:27;;;;;;;31.87;20.33;;;3.00;99.90;;;;;;5139633;27;20495;-88
2021/01/05 03:31:56;;;;;;;27.80;19.50;;;3.00;99.90;;;;;;5137824;27;20512;-89
2021/01/05 03:34:23;;;;;;;29.33;19.73;;;3.10;99.90;;;;;;5141243;27;20943;-88
2021/01/05 03:36:50;;;;;;;29.53;19.17;;;3.10;99.90;;;;;;5140050;27;20455;-87
2021/01/05 03:39:16;;;;;;;29.17;20.57;;;3.10;99.90;;;;;;5141044;27;20485;-88
2021/01/05 03:41:42;;;;;;;28.20;18.13;;;3.10;99.90;;;;;;5133972;27;21840;-87
2021/01/05 03:44:09;;;;;;;27.77;19.30;;;3.10;99.90;;;;;;5138612;27;20447;-88
2021/01/05 03:46:36;;;;;;;28.63;19.20;;;3.10;99.90;;;;;;5136393;27;20440;-89
2021/01/05 03:49:03;;;;;;;31.50;20.80;;;3.10;99.90;;;;;;5138340;27;20449;-88
2021/01/05 03:51:30;;;;;;;29.83;19.73;;;3.10;99.90;;;;;;5138281;27;20429;-88
2021/01/05 03:53:56;;;;;;;32.07;20.47;;;3.10;99.90;;;;;;5138047;27;21029;-87
2021/01/05 03:56:22;;;;;;;29.23;20.03;;;3.10;99.90;;;;;;5138038;27;20431;-87
2021/01/05 03:58:51;;;;;;;26.50;18.60;;;3.10;99.90;;;;;;5138922;27;20454;-87
2021/01/05 04:01:18;;;;;;;34.80;20.77;;;3.10;99.90;;;;;;5133680;27;20481;-87
2021/01/05 04:03:44;;;;;;;31.97;20.00;;;3.20;99.90;;;;;;5137689;27;20464;-89
2021/01/05 04:06:11;;;;;;;33.13;21.17;;;3.20;99.90;;;;;;5137869;27;20805;-87
2021/01/05 04:08:38;;;;;;;29.90;20.80;;;3.20;99.90;;;;;;5139348;27;20502;-88
2021/01/05 04:11:05;;;;;;;27.30;19.90;;;3.20;99.90;;;;;;5136500;27;20439;-87
2021/01/05 04:13:31;;;;;;;28.67;20.50;;;3.20;99.90;;;;;;5128650;27;20461;-87
2021/01/05 04:15:57;;;;;;;30.20;19.73;;;3.20;99.90;;;;;;5123712;27;20453;-87
2021/01/05 04:18:24;;;;;;;28.77;19.77;;;3.20;99.90;;;;;;5123314;27;20443;-88
2021/01/05 04:20:50;;;;;;;30.10;21.03;;;3.20;99.90;;;;;;5124648;27;20426;-88
2021/01/05 04:23:17;;;;;;;32.10;20.43;;;3.10;99.90;;;;;;5122740;27;20484;-88
2021/01/05 04:25:44;;;;;;;31.83;20.83;;;3.20;99.90;;;;;;5124028;27;20434;-88
2021/01/05 04:28:10;;;;;;;33.17;21.50;;;3.20;99.90;;;;;;5125698;27;20438;-88
2021/01/05 04:30:38;;;;;;;31.30;21.43;;;3.20;99.90;;;;;;5123844;27;20522;-88
2021/01/05 04:33:08;;;;;;;32.10;22.30;;;3.20;99.90;;;;;;5120736;27;20460;-88
2021/01/05 04:35:34;;;;;;;29.20;21.60;;;3.20;99.90;;;;;;5120548;27;20434;-88
2021/01/05 04:38:01;;;;;;;31.20;21.63;;;3.20;99.90;;;;;;5122934;27;20440;-88
2021/01/05 04:40:32;;;;;;;29.87;19.63;;;3.20;99.90;;;;;;5124449;27;20434;-88
2021/01/05 04:43:40;;;;;;;31.27;20.57;;;3.30;99.90;;;;;;5124048;27;20477;-88
2021/01/05 04:46:30;;;;;;;30.67;21.67;;;3.20;99.90;;;;;;5120361;27;20436;-89
2021/01/05 04:49:01;;;;;;;30.70;20.43;;;3.20;99.90;;;;;;5123287;27;20961;-89
2021/01/05 04:51:43;;;;;;;30.17;22.23;;;3.20;99.90;;;;;;5124266;27;20433;-88
2021/01/05 04:54:18;;;;;;;31.63;20.20;;;3.30;99.90;;;;;;5123356;27;20451;-89
2021/01/05 04:56:54;;;;;;;31.97;21.53;;;3.20;99.90;;;;;;5123002;27;20843;-89
2021/01/05 04:59:25;;;;;;;30.23;21.30;;;3.20;99.90;;;;;;5122146;27;20925;-88
2021/01/05 05:01:51;;;;;;;37.97;23.47;;;3.20;99.90;;;;;;5122131;27;20477;-87
2021/01/05 05:04:27;;;;;;;31.80;20.60;;;3.30;99.90;;;;;;5123253;27;20440;-89
2021/01/05 05:06:59;;;;;;;31.33;21.10;;;3.20;99.90;;;;;;5122757;27;20517;-88
2021/01/05 05:09:34;;;;;;;34.63;23.17;;;3.20;99.90;;;;;;5125665;27;20887;-88
2021/01/05 05:12:16;;;;;;;30.33;20.80;;;3.20;99.90;;;;;;5123081;27;20453;-88
2021/01/05 05:14:58;;;;;;;32.50;21.37;;;3.20;99.90;;;;;;5121593;27;20454;-88
2021/01/05 05:17:39;;;;;;;29.10;20.53;;;3.20;99.90;;;;;;5122516;27;20954;-87
2021/01/05 05:20:18;;;;;;;29.10;21.10;;;3.20;99.90;;;;;;5121591;27;20453;-88
2021/01/05 05:22:52;;;;;;;30.10;21.40;;;3.30;99.90;;;;;;5122844;27;20480;-88
2021/01/05 05:25:24;;;;;;;29.87;20.67;;;3.30;99.90;;;;;;5118336;27;20448;-88
2021/01/05 05:27:55;;;;;;;31.30;20.30;;;3.30;99.90;;;;;;5120879;27;20448;-88
2021/01/05 05:30:32;;;;;;;27.83;20.70;;;3.20;99.90;;;;;;5121810;27;20445;-89
2021/01/05 05:33:01;;;;;;;31.87;21.77;;;3.20;99.90;;;;;;5123118;27;20465;-87
2021/01/05 05:36:01;;;;;;;33.60;23.80;;;3.30;99.90;;;;;;5121864;27;20471;-88
2021/01/05 05:38:42;;;;;;;26.67;18.67;;;3.30;99.90;;;;;;5122007;27;20444;-88
2021/01/05 05:41:20;;;;;;;29.87;21.03;;;3.30;99.90;;;;;;5122003;27;20481;-88
2021/01/05 05:43:58;;;;;;;28.97;22.27;;;3.30;99.90;;;;;;5122877;27;20817;-87
2021/01/05 05:46:33;;;;;;;31.00;20.80;;;3.30;99.90;;;;;;5123424;27;20450;-88
2021/01/05 05:49:04;;;;;;;30.27;22.97;;;3.40;99.90;;;;;;5121300;27;20441;-87
2021/01/05 05:51:34;;;;;;;51.60;22.03;;;3.30;99.90;;;;;;5114628;27;20429;-87
2021/01/05 05:54:09;;;;;;;28.70;20.63;;;3.30;99.90;;;;;;5126349;27;20611;-88
2021/01/05 05:56:49;;;;;;;34.80;24.40;;;3.40;99.90;;;;;;5131791;27;20429;-87
2021/01/05 05:59:17;;;;;;;28.67;20.50;;;3.30;99.90;;;;;;5113507;27;20814;-87
2021/01/05 06:01:44;;;;;;;28.13;21.13;;;3.40;99.90;;;;;;5127637;27;20506;-89
2021/01/05 06:04:12;;;;;;;29.20;21.03;;;3.40;99.90;;;;;;5102711;27;20835;-88
2021/01/05 06:06:41;;;;;;;30.20;22.23;;;3.40;99.90;;;;;;5094799;28;20469;-89
2021/01/05 06:09:07;;;;;;;27.70;21.60;;;3.40;99.90;;;;;;5112443;28;20447;-87
2021/01/05 06:11:33;;;;;;;28.63;20.00;;;3.50;99.90;;;;;;5112649;27;20441;-87
2021/01/05 06:14:00;;;;;;;26.77;19.87;;;3.50;99.90;;;;;;5112434;28;20601;-88
2021/01/05 06:16:29;;;;;;;27.67;19.10;;;3.40;99.90;;;;;;5111638;28;21011;-88
2021/01/05 06:18:56;;;;;;;29.63;21.10;;;3.30;99.90;;;;;;5111959;28;20468;-88
2021/01/05 06:21:22;;;;;;;31.03;22.20;;;3.30;99.90;;;;;;5102778;28;20531;-88
2021/01/05 06:23:48;;;;;;;29.57;20.97;;;3.30;99.90;;;;;;5091910;28;20474;-87
2021/01/05 06:26:16;;;;;;;30.60;20.50;;;3.30;99.90;;;;;;5092079;28;20503;-88
2021/01/05 06:28:42;;;;;;;34.17;22.10;;;3.30;99.90;;;;;;5091955;28;20541;-88
2021/01/05 06:31:09;;;;;;;27.30;21.07;;;3.30;99.90;;;;;;5092052;28;20446;-87
2021/01/05 06:33:35;;;;;;;27.03;21.20;;;3.40;99.90;;;;;;5091834;28;20473;-88
2021/01/05 06:36:02;;;;;;;30.67;22.13;;;3.40;99.90;;;;;;5104021;28;20581;-88
2021/01/05 06:38:28;;;;;;;31.37;22.40;;;3.40;99.90;;;;;;5110514;27;20821;-89
2021/01/05 06:40:55;;;;;;;27.67;19.60;;;3.30;99.90;;;;;;5112280;27;20483;-88
2021/01/05 06:43:21;;;;;;;28.10;20.50;;;3.30;99.90;;;;;;5111979;28;20479;-88
2021/01/05 06:45:47;;;;;;;29.93;21.47;;;3.40;99.90;;;;;;5111821;28;20437;-87
2021/01/05 06:48:13;;;;;;;25.87;19.67;;;3.30;99.90;;;;;;5111317;28;21000;-88
2021/01/05 06:50:39;;;;;;;30.77;20.40;;;3.20;99.90;;;;;;5091792;28;20993;-88
2021/01/05 06:53:06;;;;;;;33.60;22.40;;;3.30;99.90;;;;;;5097242;28;20526;-88
2021/01/05 06:55:33;;;;;;;31.80;22.17;;;3.40;99.90;;;;;;5099033;28;20449;-88
2021/01/05 06:57:59;;;;;;;31.53;20.47;;;3.40;99.90;;;;;;5101413;28;20442;-88
2021/01/05 07:00:27;;;;;;;27.50;20.70;;;3.40;99.90;;;;;;5111892;28;20441;-88
2021/01/05 07:02:54;;;;;;;27.97;20.10;;;3.40;99.90;;;;;;5106155;28;20489;-88
2021/01/05 07:05:21;;;;;;;29.80;21.80;;;3.30;99.90;;;;;;5091392;28;20455;-87
2021/01/05 07:07:48;;;;;;;31.17;21.80;;;3.40;99.90;;;;;;5091464;28;20446;-89
2021/01/05 07:10:16;;;;;;;27.17;20.80;;;3.40;99.90;;;;;;5091808;28;20454;-88
2021/01/05 07:12:43;;;;;;;26.80;19.60;;;3.50;99.90;;;;;;5091338;28;20475;-87
2021/01/05 07:15:11;;;;;;;26.07;19.87;;;3.50;99.90;;;;;;5091207;28;20495;-86
2021/01/05 07:17:37;;;;;;;28.23;18.77;;;3.60;99.90;;;;;;5102099;28;20446;-88
2021/01/05 07:20:05;;;;;;;24.83;20.13;;;3.60;99.90;;;;;;5111452;28;20949;-88
2021/01/05 07:22:31;;;;;;;29.30;20.27;;;3.60;99.90;;;;;;5111261;27;20477;-89
2021/01/05 07:24:57;;;;;;;27.90;19.47;;;3.60;99.90;;;;;;5116227;28;20471;-89
2021/01/05 07:27:24;;;;;;;26.80;19.10;;;3.60;99.90;;;;;;5120488;27;20438;-87
2021/01/05 07:29:50;;;;;;;25.63;19.90;;;3.70;99.90;;;;;;5123132;27;20506;-87
2021/01/05 07:32:16;;;;;;;26.10;17.83;;;3.60;99.90;;;;;;5118636;27;20460;-88
2021/01/05 07:34:43;;;;;;;24.80;17.93;;;3.70;99.90;;;;;;5113489;27;20445;-87
2021/01/05 07:37:14;;;;;;;26.47;20.10;;;3.70;99.90;;;;;;5113941;27;20451;-87
2021/01/05 07:39:40;;;;;;;27.40;19.70;;;3.70;99.90;;;;;;5118493;27;20470;-87
2021/01/05 07:42:19;;;;;;;24.83;20.00;;;3.60;99.90;;;;;;5116448;27;21068;-88
2021/01/05 07:44:49;;;;;;;21.70;17.53;;;3.60;99.90;;;;;;5098551;28;20446;-87
2021/01/05 07:47:16;;;;;;;24.13;17.77;;;3.60;99.90;;;;;;5101528;28;20442;-86
2021/01/05 07:49:43;;;;;;;21.17;16.87;;;3.60;99.90;;;;;;5104391;28;20946;-87
2021/01/05 07:52:21;;;;;;;23.53;17.57;;;3.70;99.90;;;;;;5104454;28;20465;-88
2021/01/05 07:54:47;;;;;;;30.70;18.97;;;3.70;99.90;;;;;;5092991;28;20449;-87
2021/01/05 07:57:14;;;;;;;24.43;17.73;;;3.60;99.90;;;;;;5093547;28;20446;-89
2021/01/05 07:59:40;;;;;;;23.17;17.67;;;3.60;99.90;;;;;;5092930;28;20446;-87
2021/01/05 08:02:07;;;;;;;23.83;17.00;;;3.60;99.90;;;;;;5093131;28;20560;-88
2021/01/05 08:04:33;;;;;;;23.17;17.67;;;3.60;99.90;;;;;;5110073;27;20449;-87
2021/01/05 08:06:59;;;;;;;22.03;18.43;;;3.70;99.90;;;;;;5134712;27;20442;-87
2021/01/05 08:09:26;;;;;;;22.00;18.60;;;3.70;99.90;;;;;;5111633;27;20476;-86
2021/01/05 08:11:52;;;;;;;23.00;18.07;;;3.60;99.90;;;;;;5120943;27;20434;-87
2021/01/05 08:14:18;;;;;;;22.07;17.00;;;3.60;99.90;;;;;;5109782;27;20438;-86
2021/01/05 08:16:49;;;;;;;26.27;19.40;;;3.70;99.90;;;;;;5128254;27;20440;-88
2021/01/05 08:19:16;;;;;;;23.70;18.57;;;3.60;99.90;;;;;;5102194;27;20541;-88
2021/01/05 08:21:42;;;;;;;23.57;18.83;;;3.60;99.90;;;;;;5094224;28;21017;-88
2021/01/05 08:24:09;;;;;;;20.23;16.60;;;3.60;99.90;;;;;;5094493;28;20449;-86
2021/01/05 08:26:35;;;;;;;22.43;16.50;;;3.60;99.90;;;;;;5093993;28;20442;-87
2021/01/05 08:29:01;;;;;;;21.07;16.77;;;3.60;99.90;;;;;;5095099;28;20480;-87
2021/01/05 08:31:32;;;;;;;21.17;16.37;;;3.60;99.90;;;;;;5114553;28;20448;-87
2021/01/05 08:33:58;;;;;;;24.20;17.80;;;3.50;99.90;;;;;;5114200;27;20800;-87
2021/01/05 08:36:28;;;;;;;22.40;18.20;;;3.60;99.90;;;;;;5114146;28;20445;-87
2021/01/05 08:38:54;;;;;;;24.73;18.53;;;3.60;99.90;;;;;;5101616;28;20510;-87
2021/01/05 08:41:20;;;;;;;26.10;18.47;;;3.60;99.90;;;;;;5093852;28;20450;-88
2021/01/05 08:43:47;;;;;;;23.97;17.70;;;3.60;99.90;;;;;;5097269;28;20466;-88
2021/01/05 08:46:20;;;;;;;22.27;17.10;;;3.60;99.90;;;;;;5093538;28;20461;-87
2021/01/05 08:48:46;;;;;;;21.80;17.60;;;3.60;99.90;;;;;;5093710;28;20825;-87
2021/01/05 08:51:12;;;;;;;23.70;18.10;;;3.60;99.90;;;;;;5093914;28;20479;-87
2021/01/05 08:53:39;;;;;;;24.63;18.70;;;3.50;99.90;;;;;;5093570;28;20477;-86
2021/01/05 08:56:13;;;;;;;23.73;16.00;;;3.60;99.90;;;;;;5108244;28;20995;-87
2021/01/05 08:58:40;;;;;;;24.37;18.13;;;3.60;99.90;;;;;;5098611;28;21045;-88
2021/01/05 09:01:06;;;;;;;25.23;17.80;;;3.70;99.90;;;;;;5093488;28;20958;-88
2021/01/05 09:03:32;;;;;;;22.00;16.60;;;3.70;99.90;;;;;;5093304;28;20484;-88
2021/01/05 09:05:58;;;;;;;23.00;17.13;;;3.60;99.90;;;;;;5093064;28;20952;-88
2021/01/05 09:08:26;;;;;;;24.10;17.90;;;3.60;99.90;;;;;;5093182;28;20973;-87
2021/01/05 09:10:53;;;;;;;23.97;17.60;;;3.60;99.90;;;;;;5093464;28;20640;-87
2021/01/05 09:13:19;;;;;;;30.20;19.67;;;3.60;99.90;;;;;;5093133;28;20587;-87
2021/01/05 09:15:45;;;;;;;25.17;18.03;;;3.60;99.90;;;;;;5092898;28;21135;-87
2021/01/05 09:18:11;;;;;;;23.33;17.00;;;3.60;99.90;;;;;;5093143;28;20446;-86
2021/01/05 09:20:37;;;;;;;24.63;18.33;;;3.60;99.90;;;;;;5093119;28;20458;-87
2021/01/05 09:23:03;;;;;;;26.43;18.83;;;3.70;99.90;;;;;;5099236;27;20485;-87
2021/01/05 09:25:29;;;;;;;26.40;20.47;;;3.70;99.90;;;;;;5107749;27;20443;-87
2021/01/05 09:27:56;;;;;;;23.03;18.30;;;3.70;99.90;;;;;;5097428;28;20449;-88
2021/01/05 09:30:23;;;;;;;22.90;18.03;;;3.70;99.90;;;;;;5114076;27;20453;-87
2021/01/05 09:32:49;;;;;;;29.70;19.67;;;3.70;99.90;;;;;;5113221;28;20466;-88
2021/01/05 09:35:16;;;;;;;24.53;19.50;;;3.60;99.90;;;;;;5113276;28;20441;-88
2021/01/05 09:37:44;;;;;;;26.77;19.20;;;3.70;99.90;;;;;;5113519;28;20454;-86
2021/01/05 09:40:12;;;;;;;27.13;18.93;;;3.70;99.90;;;;;;5113698;28;20456;-87
2021/01/05 09:42:38;;;;;;;28.10;21.33;;;3.80;99.90;;;;;;5104005;27;20485;-89
2021/01/05 09:45:09;;;;;;;27.10;18.50;;;3.80;99.90;;;;;;5111063;28;20456;-88
2021/01/05 09:47:35;;;;;;;26.97;19.40;;;3.90;99.90;;;;;;5111673;28;20451;-87
2021/01/05 09:50:01;;;;;;;29.13;21.03;;;3.80;99.90;;;;;;5112801;28;20445;-87
2021/01/05 09:52:34;;;;;;;21.93;17.53;;;3.90;99.90;;;;;;5112961;28;20449;-88
2021/01/05 09:55:00;;;;;;;25.77;20.63;;;3.90;99.90;;;;;;5112328;28;21282;-87
2021/01/05 09:57:26;;;;;;;26.70;18.77;;;4.00;99.90;;;;;;5095401;28;20459;-87
2021/01/05 09:59:52;;;;;;;28.10;20.50;;;4.00;99.90;;;;;;5092634;28;20450;-87
2021/01/05 10:02:21;;;;;;;27.70;18.93;;;4.10;99.90;;;;;;5092121;28;20482;-88
2021/01/05 10:04:47;;;;;;;25.43;20.20;;;4.00;99.90;;;;;;5092329;28;20457;-87
2021/01/05 10:07:13;;;;;;;25.40;19.73;;;4.00;99.90;;;;;;5091610;28;20451;-88
2021/01/05 10:09:40;;;;;;;25.47;19.07;;;4.10;99.90;;;;;;5094939;28;20448;-87
2021/01/05 10:12:07;;;;;;;27.63;19.40;;;4.10;99.90;;;;;;5112048;28;20461;-87
2021/01/05 10:14:33;;;;;;;24.40;18.47;;;4.10;99.90;;;;;;5102332;28;20954;-86
2021/01/05 10:16:59;;;;;;;26.50;19.60;;;4.20;99.90;;;;;;5092334;28;20455;-87
2021/01/05 10:19:27;;;;;;;28.40;20.17;;;4.10;99.90;;;;;;5092418;28;20462;-86
2021/01/05 10:21:53;;;;;;;26.37;20.00;;;4.10;99.90;;;;;;5092277;28;20478;-86
2021/01/05 10:24:19;;;;;;;23.20;18.57;;;4.10;99.90;;;;;;5099509;28;20446;-86
2021/01/05 10:26:53;;;;;;;22.13;17.40;;;4.10;99.90;;;;;;5112923;28;20441;-86
2021/01/05 10:29:20;;;;;;;23.13;18.33;;;4.20;99.90;;;;;;5103489;28;20450;-86
2021/01/05 10:31:46;;;;;;;23.00;18.10;;;4.30;99.90;;;;;;5092105;28;20464;-85
2021/01/05 10:34:14;;;;;;;25.70;19.30;;;4.30;99.90;;;;;;5107162;28;20494;-86
2021/01/05 10:36:41;;;;;;;26.93;19.27;;;4.40;99.90;;;;;;5111725;28;20445;-86
2021/01/05 10:39:09;;;;;;;23.47;17.70;;;4.40;99.90;;;;;;5097260;28;20450;-87
2021/01/05 10:41:38;;;;;;;29.23;20.20;;;4.40;99.90;;;;;;5091621;28;20474;-87
2021/01/05 10:44:05;;;;;;;22.67;17.47;;;4.40;99.90;;;;;;5091814;28;20462;-87
2021/01/05 10:46:32;;;;;;;23.73;17.07;;;4.50;99.90;;;;;;5108780;28;20462;-87
2021/01/05 10:48:58;;;;;;;20.87;17.37;;;4.40;99.90;;;;;;5110033;28;20456;-88
2021/01/05 10:51:24;;;;;;;24.90;18.67;;;4.40;99.90;;;;;;5111601;28;20445;-87
2021/01/05 10:53:51;;;;;;;26.00;20.30;;;4.40;99.90;;;;;;5091652;28;20470;-87
2021/01/05 10:56:18;;;;;;;22.80;18.87;;;4.40;99.90;;;;;;5091380;28;20516;-86
2021/01/05 10:58:45;;;;;;;25.73;20.10;;;4.50;99.90;;;;;;5091611;28;20454;-87
2021/01/05 11:01:11;;;;;;;23.30;17.90;;;4.50;99.90;;;;;;5091253;28;20527;-87
2021/01/05 11:03:37;;;;;;;28.03;20.20;;;4.50;99.90;;;;;;5091531;28;20489;-87
2021/01/05 11:06:05;;;;;;;25.17;18.93;;;4.50;99.90;;;;;;5096847;28;20824;-87
2021/01/05 11:08:31;;;;;;;30.07;22.20;;;4.50;99.90;;;;;;5110229;27;20463;-87
2021/01/05 11:11:00;;;;;;;25.70;20.47;;;4.50;99.90;;;;;;5111530;28;20449;-87
2021/01/05 11:13:26;;;;;;;25.23;18.97;;;4.50;99.90;;;;;;5111256;28;20460;-87
2021/01/05 11:15:52;;;;;;;26.20;17.50;;;4.50;99.90;;;;;;5111730;28;20957;-87
2021/01/05 11:18:18;;;;;;;25.33;18.97;;;4.60;99.90;;;;;;5111492;28;20446;-87
2021/01/05 11:20:45;;;;;;;26.43;19.27;;;4.50;99.90;;;;;;5098767;28;20450;-86
2021/01/05 11:23:11;;;;;;;26.43;18.97;;;4.60;99.90;;;;;;5092439;28;20481;-87
2021/01/05 11:25:37;;;;;;;22.00;17.63;;;4.50;99.90;;;;;;5095248;28;20446;-88
2021/01/05 11:28:05;;;;;;;27.97;21.10;;;4.50;99.90;;;;;;5101005;28;20825;-87
2021/01/05 11:30:32;;;;;;;26.17;19.47;;;4.40;99.90;;;;;;5115710;28;20449;-87
2021/01/05 11:32:58;;;;;;;27.73;21.30;;;4.50;99.90;;;;;;5110588;28;20466;-87
2021/01/05 11:35:25;;;;;;;24.73;21.17;;;4.50;99.90;;;;;;5111778;28;20502;-87
2021/01/05 11:37:51;;;;;;;26.93;18.90;;;4.60;99.90;;;;;;5115732;28;20814;-86
2021/01/05 11:40:18;;;;;;;21.60;17.37;;;4.50;99.90;;;;;;5115876;27;20464;-88
2021/01/05 11:42:44;;;;;;;23.77;18.00;;;4.60;99.90;;;;;;5115105;28;20499;-88
2021/01/05 11:45:13;;;;;;;28.50;19.40;;;4.60;99.90;;;;;;5115240;28;20456;-86
2021/01/05 11:47:39;;;;;;;22.53;17.00;;;4.60;99.90;;;;;;5110823;27;20823;-88
2021/01/05 11:50:10;;;;;;;25.67;19.63;;;4.60;99.90;;;;;;5095105;28;21031;-87
2021/01/05 11:52:36;;;;;;;23.43;19.20;;;4.70;99.90;;;;;;5095014;28;20501;-88
2021/01/05 11:55:03;;;;;;;22.90;17.83;;;4.70;99.90;;;;;;5094627;28;21206;-87
2021/01/05 11:57:30;;;;;;;22.83;18.67;;;4.70;99.90;;;;;;5094759;28;20453;-86
2021/01/05 11:59:56;;;;;;;24.23;20.03;;;4.70;99.90;;;;;;5094962;28;20512;-88
2021/01/05 12:02:23;;;;;;;24.90;18.07;;;4.80;99.90;;;;;;5102505;28;20477;-88
2021/01/05 12:04:49;;;;;;;24.70;19.53;;;4.90;99.90;;;;;;5115170;28;20441;-87
2021/01/05 12:07:15;;;;;;;25.13;17.30;;;4.90;99.90;;;;;;5115203;28;20445;-88
2021/01/05 12:09:43;;;;;;;27.80;20.73;;;4.90;99.90;;;;;;5114685;28;20545;-88
2021/01/05 12:14:44;;;;;;;22.57;18.23;;;4.80;99.90;;;;;;4338551;22;21063;-89
2021/01/05 12:17:10;;;;;;;38.67;34.40;;;4.70;99.90;;;;;;5034121;28;20495;-88
2021/01/05 12:19:40;;;;;;;25.93;21.43;;;4.80;99.90;;;;;;5033666;28;20988;-87
2021/01/05 12:22:07;;;;;;;28.60;20.80;;;4.80;99.90;;;;;;5034029;28;20564;-87
2021/01/05 12:24:37;;;;;;;27.70;20.73;;;4.80;99.90;;;;;;5033588;28;20449;-87
2021/01/05 12:27:05;;;;;;;30.90;19.30;;;4.80;99.90;;;;;;5033981;28;20830;-83
2021/01/05 12:29:33;;;;;;;22.97;18.30;;;4.80;99.90;;;;;;5032001;28;21005;-84
2021/01/05 12:32:02;;;;;;;24.87;18.53;;;4.80;99.90;;;;;;5034014;28;21040;-86
2021/01/05 12:34:31;;;;;;;23.60;19.30;;;4.90;99.90;;;;;;5032909;28;20453;-83
2021/01/05 12:37:01;;;;;;;30.03;21.00;;;4.90;99.90;;;;;;5034427;28;20460;-83
2021/01/05 12:39:31;;;;;;;24.70;18.43;;;4.90;99.90;;;;;;5033532;28;20442;-84
2021/01/05 12:41:59;;;;;;;26.13;19.57;;;4.90;99.90;;;;;;5035101;28;20556;-82
2021/01/05 12:44:27;;;;;;;26.13;19.60;;;4.90;99.90;;;;;;5033607;28;20966;-84
2021/01/05 12:46:54;;;;;;;22.70;17.30;;;4.80;99.90;;;;;;5033927;28;20445;-83
2021/01/05 12:49:20;;;;;;;23.10;18.70;;;4.80;99.90;;;;;;5033213;28;20453;-84
2021/01/05 12:51:48;;;;;;;24.30;16.80;;;4.80;99.90;;;;;;5033341;28;20449;-84
2021/01/05 12:54:17;;;;;;;23.50;17.50;;;4.90;99.90;;;;;;5032915;28;20450;-83